klickpages.com.br alexa rank chart, klickpages.com.br alexa rank daily changes

klickpages.com.br alexa rank chart, klickpages.com.br alexa rank daily changes

klickpages.com.br
Actual rank:
185 871

RANK HISTORY

Date Rank Diff
2018/04/19 185 871 +127 127
2018/04/18 58 744 -92 281
2018/04/17 151 025 +86 690
2018/04/16 64 335 -25 631
2018/04/15 89 966 +22 930
2018/04/14 67 036 +25 991
2018/04/13 41 045 -9 308
2018/04/12 50 353 +507
2018/04/11 49 846 -15 235
2018/04/10 65 081 +14 554
2018/04/09 50 527 -10 568
2018/04/08 61 095 +580
2018/04/07 60 515 -22 661
2018/04/06 83 176 +27 052
2018/04/05 56 124 -4 350
2018/04/04 60 474 -2 691
2018/04/03 63 165 -105 384
2018/04/02 168 549 -14 076
2018/04/01 182 625 +104 977
2018/03/31 77 648 -76 962
2018/03/30 154 610 +53 565
2018/03/29 101 045 +7 008
2018/03/28 94 037 -209 919
2018/03/27 303 956 +226 132
2018/03/26 77 824 -24 031
2018/03/25 101 855 +10 130
2018/03/24 91 725 +25 073
2018/03/23 66 652 -8 805
2018/03/22 75 457 -12 624
2018/03/21 88 081 -97 168
2018/03/20 185 249 +93 554
2018/03/19 91 695 +10 538
2018/03/18 81 157 +9 783
2018/03/17 71 374 +5 895
2018/03/16 65 479 +1 309
2018/03/15 64 170 +2 631
2018/03/14 61 539 -61 959
2018/03/13 123 498 +61 794
2018/03/12 61 704 +2 215
2018/03/11 59 489 -428
2018/03/10 59 917 -83 645
2018/03/09 143 562 +68 151
2018/03/08 75 411 -2 768
2018/03/07 78 179 -51 765
2018/03/06 129 944 +47 335
2018/03/05 82 609 +28 439
2018/03/04 54 170 -35 353
2018/03/03 89 523 +8 052
2018/03/02 81 471 -3 335
2018/03/01 84 806 +3 131
2018/02/28 81 675 -102 183
2018/02/27 183 858 +80 813
2018/02/26 103 045 +36 915
2018/02/25 66 130 -8 359
2018/02/24 74 489 +22 224
2018/02/23 52 265 -22 417
2018/02/22 74 682 +30 126
2018/02/21 44 556 -34 916
2018/02/20 79 472 +5 962
2018/02/19 73 510 +43 429
2018/02/18 30 081

WIDGET FOR YOUR SITE

DOMAINS WITH THE NEAREST RANK

Domain Rank
mgou.ru 185 866
scamnumbers.info 185 867
cardsonline-commercial.com 185 868
eclick.vn 185 869
jonbarron.org 185 870
klickpages.com.br 185 871
bec.sp.gov.br 185 872
szexrandi.hu 185 873
betriebsrat.com 185 874
btv.de 185 875
christ-sucht-christ.de 185 876

DOMAINS WITH THE NEAREST RANK BY TLD .com.br

Domain Rank
tequileirasdofunk.com.br 185 317
waz.com.br 185 320
legaleeducacional.com.br 185 365
mantosdofutebol.com.br 185 496
feedclub.com.br 185 779
klickpages.com.br 185 871
discoverykidsplay.com.br 186 361
resultadosdobichotemporeal.com.br 186 577
manualdomundo.com.br 186 607
rh.com.br 186 687
render.com.br 186 728